Terminal Aerodrome Forecast
Issued by NWS Upton, NY

Home | Current Version | Previous Version | Text Only | Print | Product List | Glossary On
Versions: 1 2 3 4 5 6 7 8 9 10 11 12 13 14 15 16 17 18 19 20 21 22 23 24 25 26 27 28
000
FTUS41 KOKX 211200 AAA
TAFBDR
TAF AMD
KBDR 211212Z 2112/2212 VRB05KT 6SM -SHRA BR SCT007 SCT015
      TEMPO 2112/2114 3SM -SHRA BR BKN007
     FM211400 16005KT 6SM BR BKN015
     FM211600 15005KT P6SM BKN025
     FM211800 15006KT P6SM SCT025 BKN250
     FM220000 VRB05KT 6SM BR SCT015 BKN250
     FM220600 29007KT P6SM SCT025=

USA.gov is the U.S. government's official web portal to all federal, state and local government web resources and services.